Time;durP1;ratioP1;P1;durP2;ratioP2;P2;SDS_P1;SDS_P2;PMS_P1;PMS_P2;Temp;Humidity;BMP_temperature;BMP_pressure;BME280_temperature;BME280_humidity;BME280_pressure;Samples;Min_cycle;Max_cycle;Signal;HPM_P1;HPM_P2
2023/05/04 00:00:43;;;;;;;15.15;8.45;;;14.00;99.90;;;;;;4916129;29;20020;-75
2023/05/04 00:03:09;;;;;;;17.08;9.90;;;14.00;99.90;;;;;;4915826;29;20032;-74
2023/05/04 00:05:35;;;;;;;17.30;11.27;;;14.10;99.90;;;;;;4915897;29;20023;-72
2023/05/04 00:08:01;;;;;;;22.02;11.73;;;14.10;99.90;;;;;;4915171;29;20052;-75
2023/05/04 00:10:27;;;;;;;25.48;12.30;;;14.20;99.90;;;;;;4915510;29;20035;-71
2023/05/04 00:12:53;;;;;;;23.90;13.88;;;14.20;99.90;;;;;;4915778;29;20392;-72
2023/05/04 00:15:19;;;;;;;18.77;10.43;;;14.20;99.90;;;;;;4915796;29;20024;-75
2023/05/04 00:17:45;;;;;;;17.63;10.10;;;14.20;99.90;;;;;;4915297;29;20028;-72
2023/05/04 00:20:12;;;;;;;19.60;9.98;;;14.10;99.90;;;;;;4915312;29;20432;-77
2023/05/04 00:22:38;;;;;;;18.35;9.20;;;14.20;99.90;;;;;;4915962;29;20463;-73
2023/05/04 00:25:05;;;;;;;19.45;10.88;;;14.20;99.90;;;;;;4915270;29;20048;-75
2023/05/04 00:27:31;;;;;;;18.70;10.77;;;14.20;99.90;;;;;;4915756;29;20060;-72
2023/05/04 00:29:57;;;;;;;17.15;9.52;;;14.20;99.90;;;;;;4915547;29;20078;-76
2023/05/04 00:32:23;;;;;;;17.90;9.38;;;14.10;99.90;;;;;;4915777;29;20084;-76
2023/05/04 00:34:49;;;;;;;16.15;9.50;;;14.10;99.90;;;;;;4917962;29;20032;-74
2023/05/04 00:37:15;;;;;;;15.73;9.50;;;14.00;99.90;;;;;;4902599;29;20046;-73
2023/05/04 00:39:40;;;;;;;21.65;9.77;;;13.90;99.90;;;;;;4919459;29;20020;-77
2023/05/04 00:42:06;;;;;;;16.40;9.07;;;14.00;99.90;;;;;;4919274;29;20480;-75
2023/05/04 00:44:33;;;;;;;19.52;8.95;;;14.00;99.90;;;;;;4918989;29;20444;-75
2023/05/04 00:46:59;;;;;;;16.20;9.18;;;14.00;99.90;;;;;;4919153;29;20119;-77
2023/05/04 00:49:25;;;;;;;17.60;10.20;;;14.10;99.90;;;;;;4919289;29;20446;-76
2023/05/04 00:51:53;;;;;;;17.88;9.52;;;14.10;99.90;;;;;;4919226;29;20113;-76
2023/05/04 00:54:20;;;;;;;16.05;8.57;;;14.10;99.90;;;;;;4919174;29;20020;-77
2023/05/04 00:56:46;;;;;;;20.42;10.90;;;14.10;99.90;;;;;;4919079;29;20393;-76
2023/05/04 00:59:14;;;;;;;16.02;9.52;;;14.10;99.90;;;;;;4902133;29;20476;-77
2023/05/04 01:01:41;;;;;;;15.77;7.97;;;14.00;99.90;;;;;;4901796;29;20127;-76
2023/05/04 01:04:07;;;;;;;13.45;7.43;;;14.10;99.90;;;;;;4918921;29;20432;-77
2023/05/04 01:06:57;;;;;;;14.93;8.60;;;14.10;99.90;;;;;;4901105;29;20043;-73
2023/05/04 01:09:48;;;;;;;16.90;9.52;;;14.10;99.90;;;;;;4918669;29;20047;-76
2023/05/04 01:13:09;;;;;;;26.20;12.55;;;14.10;99.90;;;;;;4911324;29;20063;-73
2023/05/04 01:15:35;;;;;;;12.95;7.00;;;14.20;99.90;;;;;;4891924;29;20115;-77
2023/05/04 01:18:01;;;;;;;12.23;7.05;;;14.20;99.90;;;;;;4918889;29;20361;-76
2023/05/04 01:20:27;;;;;;;15.68;7.45;;;14.20;99.90;;;;;;4906216;29;20020;-73
2023/05/04 01:22:55;;;;;;;13.25;6.78;;;14.20;99.90;;;;;;4901653;29;20031;-72
2023/05/04 01:25:22;;;;;;;11.68;6.72;;;14.10;99.90;;;;;;4918514;29;20503;-75
2023/05/04 01:27:55;;;;;;;14.02;6.85;;;14.10;99.90;;;;;;4918362;29;20032;-73
2023/05/04 01:30:36;;;;;;;;;;;14.20;99.90;;;;;;4918842;29;20040;-74
2023/05/04 01:33:03;;;;;;;13.80;5.88;;;14.10;99.90;;;;;;4907437;29;19942;-77
2023/05/04 01:35:29;;;;;;;9.20;5.93;;;14.10;99.90;;;;;;4918284;29;20056;-73
2023/05/04 01:37:55;;;;;;;14.18;6.25;;;14.10;99.90;;;;;;4918112;29;20072;-77
2023/05/04 01:40:21;;;;;;;12.10;5.85;;;14.10;99.90;;;;;;4918251;29;20055;-77
2023/05/04 01:42:47;;;;;;;10.15;5.85;;;14.10;99.90;;;;;;4918345;29;20043;-74
2023/05/04 01:45:13;;;;;;;8.85;5.22;;;14.10;99.90;;;;;;4916019;29;20024;-77
2023/05/04 01:47:39;;;;;;;9.70;5.88;;;14.10;99.90;;;;;;4918104;29;20072;-76
2023/05/04 01:50:05;;;;;;;10.38;5.07;;;14.10;99.90;;;;;;4900799;29;20031;-71
2023/05/04 01:52:31;;;;;;;12.15;5.25;;;14.10;99.90;;;;;;4901200;29;20519;-70
2023/05/04 01:54:57;;;;;;;13.38;6.05;;;14.10;99.90;;;;;;4900416;29;20036;-75
2023/05/04 01:57:23;;;;;;;9.98;5.80;;;14.10;99.90;;;;;;4918126;29;20088;-77
2023/05/04 01:59:48;;;;;;;12.73;6.18;;;14.20;99.90;;;;;;4900595;29;20028;-73
2023/05/04 02:02:14;;;;;;;12.13;5.88;;;14.10;99.90;;;;;;4901068;29;20032;-75
2023/05/04 02:04:40;;;;;;;10.73;5.03;;;14.10;99.90;;;;;;4900569;29;20119;-76
2023/05/04 02:07:07;;;;;;;11.48;5.82;;;14.10;99.90;;;;;;4917504;29;20088;-74
2023/05/04 02:09:33;;;;;;;11.95;5.82;;;14.10;99.90;;;;;;4917664;29;20039;-74
2023/05/04 02:11:58;;;;;;;9.85;5.47;;;14.10;99.90;;;;;;4917496;29;20032;-76
2023/05/04 02:14:24;;;;;;;13.05;5.70;;;14.00;99.90;;;;;;4917779;29;20103;-72
2023/05/04 02:16:50;;;;;;;9.68;5.13;;;14.00;99.90;;;;;;4917553;29;20665;-73
2023/05/04 02:19:16;;;;;;;11.13;5.45;;;14.00;99.90;;;;;;4917735;29;20032;-71
2023/05/04 02:21:42;;;;;;;13.48;6.53;;;14.00;99.90;;;;;;4900465;29;20031;-73
2023/05/04 02:24:08;;;;;;;14.95;6.70;;;14.00;99.90;;;;;;4900273;29;20480;-74
2023/05/04 02:26:37;;;;;;;14.95;6.72;;;14.00;99.90;;;;;;4900069;29;20028;-76
2023/05/04 02:29:04;;;;;;;13.68;8.88;;;14.00;99.90;;;;;;4917538;29;20036;-72
2023/05/04 02:31:31;;;;;;;14.65;8.88;;;14.00;99.90;;;;;;4916652;29;20146;-74
2023/05/04 02:33:57;;;;;;;13.80;7.18;;;14.10;99.90;;;;;;4917409;29;20036;-74
2023/05/04 02:36:23;;;;;;;13.60;7.40;;;14.10;99.90;;;;;;4917050;29;20039;-76
2023/05/04 02:38:50;;;;;;;10.95;7.13;;;13.90;99.90;;;;;;4917289;29;20038;-74
2023/05/04 02:41:15;;;;;;;12.20;6.50;;;13.90;99.90;;;;;;4917230;29;20029;-75
2023/05/04 02:43:41;;;;;;;11.88;6.82;;;14.00;99.90;;;;;;4917153;29;20035;-76
2023/05/04 02:46:07;;;;;;;14.52;9.05;;;14.00;99.90;;;;;;4899868;29;20095;-76
2023/05/04 02:48:34;;;;;;;15.70;9.20;;;14.00;99.90;;;;;;4916610;29;20489;-72
2023/05/04 02:50:59;;;;;;;16.35;9.25;;;13.90;99.90;;;;;;4900153;29;20028;-72
2023/05/04 02:53:25;;;;;;;16.85;9.50;;;13.80;99.90;;;;;;4899485;29;20130;-77
2023/05/04 02:55:51;;;;;;;19.15;10.23;;;13.70;99.90;;;;;;4899747;29;20040;-71
2023/05/04 02:58:17;;;;;;;16.88;9.57;;;13.70;99.90;;;;;;4899416;29;20032;-75
2023/05/04 03:00:43;;;;;;;15.00;9.15;;;13.70;99.90;;;;;;4916878;29;20035;-76
2023/05/04 03:03:08;;;;;;;19.77;11.02;;;13.70;99.90;;;;;;4916751;29;20495;-77
2023/05/04 03:05:34;;;;;;;17.77;10.27;;;13.70;99.90;;;;;;4899577;29;20036;-75
2023/05/04 03:08:00;;;;;;;16.27;10.52;;;13.70;99.90;;;;;;4899342;29;20552;-75
2023/05/04 03:10:26;;;;;;;13.68;9.45;;;13.80;99.90;;;;;;4916320;29;20036;-74
2023/05/04 03:12:52;;;;;;;15.07;8.98;;;13.70;99.90;;;;;;4899745;29;20039;-76
2023/05/04 03:15:18;;;;;;;17.70;9.40;;;13.80;99.90;;;;;;4915144;29;20132;-75
2023/05/04 03:17:44;;;;;;;15.40;9.75;;;13.70;99.90;;;;;;4899590;29;20119;-75
2023/05/04 03:20:12;;;;;;;15.80;9.43;;;13.70;99.90;;;;;;4899169;29;20460;-76
2023/05/04 03:22:39;;;;;;;18.48;10.50;;;13.70;99.90;;;;;;4916588;29;20035;-71
2023/05/04 03:25:06;;;;;;;20.50;10.35;;;13.70;99.90;;;;;;4914839;29;20385;-72
2023/05/04 03:27:32;;;;;;;17.35;9.95;;;13.70;99.90;;;;;;4899370;29;20514;-72
2023/05/04 03:29:58;;;;;;;16.13;9.35;;;13.60;99.90;;;;;;4899385;29;20021;-75
2023/05/04 03:32:25;;;;;;;14.77;8.75;;;13.50;99.90;;;;;;4899107;29;20032;-75
2023/05/04 03:34:51;;;;;;;15.23;9.93;;;13.50;99.90;;;;;;4916412;29;20551;-75
2023/05/04 03:37:19;;;;;;;14.88;9.30;;;13.60;99.90;;;;;;4898965;29;20072;-73
2023/05/04 03:39:45;;;;;;;21.23;10.75;;;13.60;99.90;;;;;;4916356;29;20028;-75
2023/05/04 03:42:11;;;;;;;16.13;10.07;;;13.60;99.90;;;;;;4899201;29;20042;-76
2023/05/04 03:44:36;;;;;;;23.27;10.73;;;13.70;99.90;;;;;;4916226;29;20063;-71
2023/05/04 03:47:02;;;;;;;17.40;10.23;;;13.70;99.90;;;;;;4916006;29;20503;-73
2023/05/04 03:49:28;;;;;;;20.00;11.68;;;13.70;99.90;;;;;;4915631;29;20462;-77
2023/05/04 03:51:54;;;;;;;17.67;10.30;;;13.70;99.90;;;;;;4915897;29;20063;-75
2023/05/04 03:54:21;;;;;;;18.63;11.32;;;13.70;99.90;;;;;;4898633;29;20028;-74
2023/05/04 03:56:47;;;;;;;20.15;11.00;;;13.60;99.90;;;;;;4915777;29;20568;-74
2023/05/04 03:59:16;;;;;;;16.67;9.88;;;13.70;99.90;;;;;;4915286;29;20016;-73
2023/05/04 04:01:42;;;;;;;16.33;10.43;;;13.80;99.90;;;;;;4899153;29;20377;-76
2023/05/04 04:04:08;;;;;;;18.45;10.23;;;13.80;99.90;;;;;;4913822;29;20039;-74
2023/05/04 04:06:35;;;;;;;17.30;11.43;;;13.80;99.90;;;;;;4914521;29;20476;-76
2023/05/04 04:09:00;;;;;;;16.02;10.18;;;13.90;99.90;;;;;;4897897;29;20135;-76
2023/05/04 04:11:27;;;;;;;19.23;10.55;;;13.90;99.90;;;;;;4898858;29;20028;-77
2023/05/04 04:13:53;;;;;;;16.55;10.35;;;14.00;99.90;;;;;;4898711;29;20444;-77
2023/05/04 04:16:20;;;;;;;16.73;9.45;;;14.00;99.90;;;;;;4915777;29;20437;-74
2023/05/04 04:18:46;;;;;;;16.85;10.85;;;14.00;99.90;;;;;;4916001;29;20024;-74
2023/05/04 04:21:12;;;;;;;18.33;10.38;;;14.10;99.90;;;;;;4915704;29;20096;-73
2023/05/04 04:23:37;;;;;;;17.70;9.73;;;14.10;99.90;;;;;;4915375;29;20025;-74
2023/05/04 04:26:05;;;;;;;19.80;11.32;;;14.20;99.90;;;;;;4915576;29;20035;-77
2023/05/04 04:28:32;;;;;;;19.02;11.07;;;14.20;99.90;;;;;;4915987;29;20064;-78
2023/05/04 04:30:58;;;;;;;18.63;11.85;;;14.30;99.90;;;;;;4915742;29;20373;-76
2023/05/04 04:33:24;;;;;;;18.20;13.25;;;14.20;99.90;;;;;;4903458;29;20111;-75
2023/05/04 04:35:51;;;;;;;23.52;16.00;;;14.40;99.90;;;;;;4915698;29;20055;-73
2023/05/04 04:38:18;;;;;;;20.75;15.60;;;14.80;99.90;;;;;;4903777;29;20044;-73
2023/05/04 04:40:44;;;;;;;20.23;15.35;;;15.00;99.90;;;;;;4915423;29;20035;-74
2023/05/04 04:43:10;;;;;;;22.65;15.45;;;15.00;99.90;;;;;;4898740;29;20028;-78
2023/05/04 04:45:36;;;;;;;20.52;14.20;;;15.00;99.90;;;;;;4915523;29;20078;-78
2023/05/04 04:48:02;;;;;;;20.63;14.63;;;15.10;99.90;;;;;;4915527;29;20083;-77
2023/05/04 04:50:28;;;;;;;19.90;12.57;;;15.10;99.90;;;;;;4915573;29;20036;-78
2023/05/04 04:52:55;;;;;;;25.27;17.38;;;15.10;99.90;;;;;;4915554;29;20039;-78
2023/05/04 04:55:22;;;;;;;21.45;14.38;;;15.20;99.90;;;;;;4915623;29;20491;-73
2023/05/04 04:57:49;;;;;;;18.13;12.85;;;15.20;99.90;;;;;;4915332;29;20106;-72
2023/05/04 05:00:15;;;;;;;21.25;14.43;;;15.30;99.90;;;;;;4915306;29;20032;-76
2023/05/04 05:02:42;;;;;;;17.00;11.93;;;15.40;99.90;;;;;;4915216;29;20020;-77
2023/05/04 05:05:08;;;;;;;20.63;13.55;;;15.30;99.90;;;;;;4915347;29;20043;-72
2023/05/04 05:07:35;;;;;;;27.13;12.55;;;15.30;99.90;;;;;;4914886;29;20104;-71
2023/05/04 05:10:01;;;;;;;18.67;13.07;;;15.30;99.90;;;;;;4914933;29;20036;-77
2023/05/04 05:12:27;;;;;;;14.93;10.60;;;15.10;99.90;;;;;;4915398;29;20440;-76
2023/05/04 05:14:53;;;;;;;23.23;13.82;;;15.10;99.90;;;;;;4915179;29;20134;-74
2023/05/04 05:17:19;;;;;;;23.40;13.05;;;15.10;99.90;;;;;;4915235;29;20040;-74
2023/05/04 05:19:45;;;;;;;20.52;12.88;;;15.20;99.90;;;;;;4915595;29;20044;-79
2023/05/04 05:22:11;;;;;;;23.27;13.32;;;15.30;99.90;;;;;;4918968;29;20077;-79
2023/05/04 05:24:37;;;;;;;22.90;14.85;;;15.50;99.90;;;;;;4918255;29;20050;-78
2023/05/04 05:27:03;;;;;;;23.58;14.02;;;15.70;99.90;;;;;;4918419;29;20460;-79
2023/05/04 05:29:29;;;;;;;25.70;14.48;;;15.70;99.90;;;;;;4917571;29;20040;-77
2023/05/04 05:31:55;;;;;;;27.70;14.35;;;15.80;99.90;;;;;;4918675;29;20150;-78
2023/05/04 05:34:21;;;;;;;21.35;14.02;;;15.70;99.90;;;;;;4918290;29;20491;-76
2023/05/04 05:36:47;;;;;;;22.45;15.10;;;15.80;99.90;;;;;;4918196;29;20035;-74
2023/05/04 05:39:14;;;;;;;22.63;14.57;;;15.90;99.90;;;;;;4918058;29;20507;-78
2023/05/04 05:41:40;;;;;;;19.23;14.38;;;15.70;99.90;;;;;;4918265;29;20080;-78
2023/05/04 05:44:06;;;;;;;22.10;12.80;;;15.90;99.90;;;;;;4918209;29;20036;-75
2023/05/04 05:46:32;;;;;;;22.58;12.98;;;16.00;99.90;;;;;;4917146;29;20028;-76
2023/05/04 05:48:58;;;;;;;22.30;14.27;;;16.10;99.90;;;;;;4917708;29;20047;-73
2023/05/04 05:51:24;;;;;;;18.75;12.35;;;16.10;99.90;;;;;;4917990;29;20036;-75
2023/05/04 05:53:50;;;;;;;18.83;11.52;;;16.10;99.90;;;;;;4918344;29;20024;-77
2023/05/04 05:56:16;;;;;;;21.63;13.15;;;16.10;99.90;;;;;;4917467;29;20505;-77
2023/05/04 05:58:42;;;;;;;26.95;11.98;;;16.00;99.90;;;;;;4918028;29;21146;-75
2023/05/04 06:01:08;;;;;;;22.63;13.20;;;16.00;99.90;;;;;;4918127;29;20064;-74
2023/05/04 06:03:33;;;;;;;25.35;15.55;;;16.10;99.90;;;;;;4909320;29;20032;-72
2023/05/04 06:05:59;;;;;;;21.10;14.23;;;16.00;99.90;;;;;;4914025;29;20024;-77
2023/05/04 06:08:25;;;;;;;23.58;13.70;;;15.90;99.90;;;;;;4910569;29;20118;-72
2023/05/04 06:10:53;;;;;;;23.83;14.25;;;15.80;99.90;;;;;;4882121;29;20080;-77
2023/05/04 06:13:19;;;;;;;25.25;15.38;;;15.60;99.90;;;;;;4914078;29;20029;-72
2023/05/04 06:15:52;;;;;;;24.25;15.23;;;15.60;99.90;;;;;;4910523;29;20054;-72
2023/05/04 06:18:19;;;;;;;25.90;15.80;;;15.40;99.90;;;;;;4912403;29;20044;-72
2023/05/04 06:20:45;;;;;;;22.48;14.35;;;15.40;99.90;;;;;;4917654;29;20016;-72
2023/05/04 06:23:13;;;;;;;21.00;13.52;;;15.40;99.90;;;;;;4913523;29;20032;-72
2023/05/04 06:25:39;;;;;;;19.63;13.45;;;15.50;99.90;;;;;;4917174;29;20021;-73
2023/05/04 06:28:05;;;;;;;17.55;12.32;;;15.30;99.90;;;;;;4917206;29;20040;-72
2023/05/04 06:30:31;;;;;;;20.15;12.38;;;15.50;99.90;;;;;;4916399;29;20113;-72
2023/05/04 06:32:57;;;;;;;19.42;11.45;;;15.40;99.90;;;;;;4916711;29;20024;-73
2023/05/04 06:35:24;;;;;;;18.00;11.07;;;15.30;99.90;;;;;;4916766;29;20088;-72
2023/05/04 06:37:50;;;;;;;18.70;10.75;;;15.50;99.90;;;;;;4917390;29;20470;-73
2023/05/04 06:40:16;;;;;;;18.80;11.80;;;15.50;99.90;;;;;;4916905;29;20140;-76
2023/05/04 06:42:42;;;;;;;19.83;12.40;;;15.40;99.90;;;;;;4917263;29;20493;-73
2023/05/04 06:45:08;;;;;;;17.92;11.30;;;15.40;99.90;;;;;;4916645;29;20024;-72
2023/05/04 06:47:36;;;;;;;17.45;11.25;;;15.30;99.90;;;;;;4911088;29;20032;-73
2023/05/04 06:50:08;;;;;;;23.65;12.90;;;15.20;99.90;;;;;;4912879;29;20306;-72
2023/05/04 06:52:37;;;;;;;21.07;13.50;;;15.40;99.90;;;;;;4915934;29;20461;-72
2023/05/04 06:55:04;;;;;;;16.40;11.38;;;15.40;99.90;;;;;;4915697;29;20040;-73
2023/05/04 06:57:30;;;;;;;22.73;14.10;;;15.40;99.90;;;;;;4912195;29;20033;-73
2023/05/04 06:59:55;;;;;;;17.83;12.15;;;15.40;99.90;;;;;;4896532;29;20051;-76
2023/05/04 07:02:21;;;;;;;19.40;12.45;;;15.50;99.90;;;;;;4915625;29;20036;-72
2023/05/04 07:04:47;;;;;;;20.77;13.60;;;15.50;99.90;;;;;;4912855;29;20032;-72
2023/05/04 07:07:13;;;;;;;17.40;11.85;;;15.60;99.90;;;;;;4911330;29;20052;-73
2023/05/04 07:09:40;;;;;;;17.63;11.20;;;15.70;99.90;;;;;;4916673;29;20036;-74
2023/05/04 07:12:06;;;;;;;21.67;13.30;;;15.70;99.90;;;;;;4910581;29;20503;-72
2023/05/04 07:14:34;;;;;;;21.25;12.27;;;15.70;99.90;;;;;;4914778;29;20013;-73
2023/05/04 07:17:00;;;;;;;20.52;12.80;;;15.70;99.90;;;;;;4895158;29;20111;-72
2023/05/04 07:19:26;;;;;;;19.98;12.25;;;15.70;99.90;;;;;;4916337;29;20433;-72
2023/05/04 07:21:53;;;;;;;18.88;11.80;;;15.60;99.90;;;;;;4912576;29;20036;-72
2023/05/04 07:24:19;;;;;;;18.30;12.55;;;15.60;99.90;;;;;;4910853;29;20557;-72
2023/05/04 07:26:45;;;;;;;17.70;11.35;;;15.70;99.90;;;;;;4915833;29;20076;-76
2023/05/04 07:29:11;;;;;;;21.50;11.98;;;15.80;99.90;;;;;;4910363;29;20046;-73
2023/05/04 07:31:37;;;;;;;20.95;12.10;;;15.90;99.90;;;;;;4915913;29;20115;-73
2023/05/04 07:34:03;;;;;;;22.05;13.27;;;16.00;99.90;;;;;;4905353;29;20043;-72
2023/05/04 07:36:38;;;;;;;20.55;12.48;;;16.00;99.90;;;;;;4915900;29;20024;-78
2023/05/04 07:39:04;;;;;;;19.45;11.95;;;16.20;99.90;;;;;;4903537;29;20476;-72
2023/05/04 07:41:30;;;;;;;20.58;12.77;;;16.30;99.90;;;;;;4915989;29;20055;-72
2023/05/04 07:43:55;;;;;;;23.77;13.13;;;16.30;99.90;;;;;;4915827;29;20063;-73
2023/05/04 07:46:21;;;;;;;20.75;13.25;;;16.40;99.90;;;;;;4915582;29;20053;-74
2023/05/04 07:48:48;;;;;;;19.08;12.88;;;16.40;99.90;;;;;;4916004;29;20040;-72
2023/05/04 07:51:15;;;;;;;24.15;14.80;;;16.70;99.90;;;;;;4915537;29;20366;-73
2023/05/04 07:53:42;;;;;;;25.92;13.32;;;16.60;99.90;;;;;;4915975;29;20039;-73
2023/05/04 07:56:11;;;;;;;22.40;13.68;;;16.70;99.90;;;;;;4916064;29;20029;-79
2023/05/04 07:58:37;;;;;;;23.50;13.88;;;16.60;99.90;;;;;;4915784;29;20036;-73
2023/05/04 08:01:03;;;;;;;20.00;14.00;;;16.50;99.90;;;;;;4915988;29;20099;-73
2023/05/04 08:03:29;;;;;;;21.58;13.75;;;16.50;99.90;;;;;;4912656;29;20035;-78
2023/05/04 08:05:55;;;;;;;22.48;12.57;;;16.60;99.90;;;;;;4900046;29;20028;-79
2023/05/04 08:08:21;;;;;;;21.15;13.77;;;16.70;99.90;;;;;;4897779;29;20055;-79
2023/05/04 08:10:47;;;;;;;25.88;14.10;;;16.90;99.90;;;;;;4915834;29;20032;-72
2023/05/04 08:13:13;;;;;;;18.95;13.18;;;17.10;99.90;;;;;;4914791;29;20035;-79
2023/05/04 08:15:39;;;;;;;21.75;13.15;;;17.10;99.90;;;;;;4915094;29;20036;-74
2023/05/04 08:18:05;;;;;;;29.42;12.77;;;17.10;99.90;;;;;;4913781;29;20087;-72
2023/05/04 08:20:31;;;;;;;20.50;12.07;;;17.30;99.90;;;;;;4915032;29;20032;-74
2023/05/04 08:23:00;;;;;;;21.35;13.32;;;17.30;99.90;;;;;;4898371;29;20150;-73
2023/05/04 08:25:25;;;;;;;19.05;12.20;;;17.50;99.90;;;;;;4915111;29;20028;-80
2023/05/04 08:27:52;;;;;;;19.38;13.70;;;17.30;99.90;;;;;;4915079;29;20067;-79
2023/05/04 08:30:18;;;;;;;19.05;12.23;;;17.30;99.90;;;;;;4914833;29;20068;-79
2023/05/04 08:32:44;;;;;;;21.30;12.80;;;17.40;99.90;;;;;;4912463;29;20024;-73
2023/05/04 08:35:10;;;;;;;18.45;12.98;;;17.50;99.90;;;;;;4914385;29;20021;-79
2023/05/04 08:37:36;;;;;;;18.98;12.00;;;17.60;99.90;;;;;;4915601;29;20592;-76
2023/05/04 08:40:03;;;;;;;23.25;12.70;;;17.70;99.90;;;;;;4915149;29;20036;-72
2023/05/04 08:42:31;;;;;;;20.60;12.20;;;17.60;99.90;;;;;;4915339;29;20037;-74
2023/05/04 08:44:58;;;;;;;20.75;12.43;;;17.50;99.90;;;;;;4914793;29;20111;-73
2023/05/04 08:47:25;;;;;;;20.05;12.48;;;17.60;99.90;;;;;;4915055;29;20432;-79
2023/05/04 08:49:55;;;;;;;21.70;13.48;;;17.70;99.90;;;;;;4915012;29;20388;-78
2023/05/04 08:52:25;;;;;;;17.17;11.27;;;17.80;99.90;;;;;;4915296;29;20380;-72
2023/05/04 08:54:55;;;;;;;20.23;13.68;;;17.70;99.90;;;;;;4915794;29;20032;-80
2023/05/04 08:57:25;;;;;;;28.20;15.40;;;17.60;99.90;;;;;;4918345;29;20032;-70
2023/05/04 08:59:53;;;;;;;22.25;13.55;;;17.70;99.90;;;;;;4901814;29;20039;-73
2023/05/04 09:02:21;;;;;;;23.65;14.13;;;17.80;99.90;;;;;;4918897;29;20056;-76
2023/05/04 09:04:54;;;;;;;22.70;12.77;;;17.90;99.90;;;;;;4916853;29;20075;-78
2023/05/04 09:07:21;;;;;;;25.38;13.57;;;17.80;99.90;;;;;;4918435;29;20051;-74
2023/05/04 09:09:49;;;;;;;26.45;13.68;;;17.70;99.90;;;;;;4918102;29;20064;-76
2023/05/04 09:12:15;;;;;;;23.15;14.43;;;17.90;99.90;;;;;;4909579;29;20116;-72
2023/05/04 09:14:42;;;;;;;29.40;16.15;;;17.40;99.90;;;;;;4913591;29;20517;-71
2023/05/04 09:17:26;;;;;;;22.75;12.70;;;17.80;99.90;;;;;;4918235;29;20353;-72
2023/05/04 09:20:02;;;;;;;21.02;12.73;;;18.00;99.90;;;;;;4918168;29;20032;-74
2023/05/04 09:22:29;;;;;;;24.90;14.23;;;18.10;99.90;;;;;;4917958;29;20036;-71
2023/05/04 09:25:12;;;;;;;19.73;11.70;;;18.20;99.90;;;;;;4918565;29;20032;-72
2023/05/04 09:27:40;;;;;;;18.83;12.68;;;18.30;99.90;;;;;;4909951;29;20032;-76
2023/05/04 09:30:07;;;;;;;23.63;11.77;;;18.50;99.90;;;;;;4918399;29;20106;-78
2023/05/04 09:32:47;;;;;;;19.95;13.45;;;18.40;99.90;;;;;;4918800;29;20025;-78
2023/05/04 09:35:15;;;;;;;20.27;11.70;;;18.40;99.90;;;;;;4917484;29;20068;-78
2023/05/04 09:37:47;;;;;;;23.17;11.13;;;18.50;99.90;;;;;;4918458;29;20060;-75
2023/05/04 09:40:14;;;;;;;24.17;11.02;;;18.70;99.90;;;;;;4918310;29;20103;-78
2023/05/04 09:42:40;;;;;;;17.90;10.60;;;18.90;99.90;;;;;;4918085;29;20132;-72
2023/05/04 09:45:07;;;;;;;20.42;10.40;;;18.80;99.90;;;;;;4917986;29;20065;-77
2023/05/04 09:47:38;;;;;;;23.13;10.65;;;19.10;99.90;;;;;;4918163;29;20028;-73
2023/05/04 09:50:15;;;;;;;17.25;10.68;;;18.80;99.90;;;;;;4918285;29;20107;-78
2023/05/04 09:52:43;;;;;;;19.42;10.93;;;19.30;99.90;;;;;;4918306;29;20119;-80
2023/05/04 09:55:13;;;;;;;20.98;11.85;;;19.40;99.90;;;;;;4918094;29;20027;-71
2023/05/04 09:57:42;;;;;;;21.55;11.27;;;19.20;99.80;;;;;;4917803;29;20028;-78
2023/05/04 10:00:14;;;;;;;16.88;11.50;;;19.00;99.90;;;;;;4906418;29;20064;-72
2023/05/04 10:02:42;;;;;;;15.40;11.05;;;18.80;99.90;;;;;;4918366;29;20032;-79
2023/05/04 10:05:13;;;;;;;17.65;10.48;;;19.20;99.90;;;;;;4917314;29;20497;-72
2023/05/04 10:07:39;;;;;;;20.25;10.63;;;19.40;99.90;;;;;;4917181;29;20060;-78
2023/05/04 10:10:06;;;;;;;16.58;10.63;;;19.70;99.90;;;;;;4918057;29;20083;-79
2023/05/04 10:12:32;;;;;;;17.88;11.40;;;19.50;99.80;;;;;;4917523;29;20020;-79
2023/05/04 10:15:00;;;;;;;15.43;8.82;;;19.60;99.90;;;;;;4917659;29;20095;-76
2023/05/04 10:17:43;;;;;;;16.33;10.40;;;19.90;99.80;;;;;;4917440;29;20051;-77
2023/05/04 10:20:31;;;;;;;16.45;8.75;;;19.90;99.90;;;;;;4917312;29;20028;-80
2023/05/04 10:23:15;;;;;;;13.98;9.43;;;20.00;99.90;;;;;;4917613;29;20123;-78
2023/05/04 10:25:44;;;;;;;20.17;10.20;;;19.80;98.60;;;;;;4917058;29;20044;-78
2023/05/04 10:28:31;;;;;;;15.40;9.40;;;19.80;99.10;;;;;;4917057;29;20488;-73
2023/05/04 10:30:58;;;;;;;13.77;9.80;;;19.60;98.00;;;;;;4917390;29;20044;-76
2023/05/04 10:33:40;;;;;;;14.88;9.32;;;19.60;99.10;;;;;;4916946;29;20021;-80
2023/05/04 10:36:07;;;;;;;;;;;19.80;99.10;;;;;;4917191;29;20039;-73
2023/05/04 10:38:37;;;;;;;14.40;8.45;;;19.80;99.90;;;;;;4917649;29;20340;-76
2023/05/04 10:41:14;;;;;;;11.80;8.07;;;19.90;99.90;;;;;;4900174;29;20036;-76
2023/05/04 10:43:41;;;;;;;15.73;9.40;;;19.80;99.40;;;;;;4916698;29;20079;-79
2023/05/04 10:46:17;;;;;;;14.93;9.63;;;19.90;99.90;;;;;;4916980;29;20063;-75
2023/05/04 10:48:43;;;;;;;14.77;9.27;;;19.80;99.50;;;;;;4916739;29;20140;-76
2023/05/04 10:51:23;;;;;;;14.25;9.75;;;19.70;99.90;;;;;;4916826;29;20107;-78
2023/05/04 10:53:50;;;;;;;13.43;9.73;;;19.90;99.90;;;;;;4916492;29;20555;-72
2023/05/04 10:56:26;;;;;;;16.45;9.70;;;19.60;99.80;;;;;;4916942;29;20385;-72
2023/05/04 10:58:53;;;;;;;15.52;9.45;;;19.60;99.90;;;;;;4913615;29;20028;-72
2023/05/04 11:01:20;;;;;;;16.45;9.75;;;19.70;99.20;;;;;;4912645;29;20062;-77
2023/05/04 11:03:47;;;;;;;14.85;9.50;;;19.80;99.90;;;;;;4916760;29;20040;-71
2023/05/04 11:06:18;;;;;;;13.02;8.45;;;19.80;99.60;;;;;;4916332;29;20027;-79
2023/05/04 11:08:48;;;;;;;14.50;8.73;;;19.60;99.90;;;;;;4916060;29;20068;-80
2023/05/04 11:11:14;;;;;;;11.95;8.13;;;19.50;99.90;;;;;;4916131;29;20032;-79
2023/05/04 11:13:45;;;;;;;11.52;7.50;;;19.80;99.40;;;;;;4916676;29;20032;-72
2023/05/04 11:16:13;;;;;;;11.45;6.95;;;19.90;99.20;;;;;;4914679;29;20024;-72
2023/05/04 11:18:40;;;;;;;14.07;7.70;;;19.80;99.30;;;;;;4912374;29;20044;-72
2023/05/04 11:21:09;;;;;;;10.05;7.13;;;19.80;99.60;;;;;;4902583;29;20031;-72
2023/05/04 11:23:37;;;;;;;13.32;7.53;;;19.80;99.40;;;;;;4914497;29;20020;-72
2023/05/04 11:26:11;;;;;;;14.93;7.55;;;19.80;99.30;;;;;;4911643;29;20036;-72
2023/05/04 11:28:37;;;;;;;14.02;8.18;;;19.90;99.90;;;;;;4916438;29;20047;-73
2023/05/04 11:31:13;;;;;;;10.98;6.60;;;20.10;99.30;;;;;;4888405;29;20036;-72
2023/05/04 11:33:51;;;;;;;12.75;7.20;;;20.20;98.00;;;;;;4916265;29;20036;-78
2023/05/04 11:36:17;;;;;;;9.70;6.53;;;20.00;97.30;;;;;;4914846;29;20039;-72
2023/05/04 11:38:44;;;;;;;16.50;6.65;;;19.90;97.10;;;;;;4900818;29;20035;-79
2023/05/04 11:41:11;;;;;;;14.70;6.63;;;19.70;97.00;;;;;;4907533;29;20400;-72
2023/05/04 11:43:39;;;;;;;12.35;6.85;;;19.20;96.90;;;;;;4915344;29;20079;-74
2023/05/04 11:46:10;;;;;;;9.98;5.45;;;19.30;98.40;;;;;;4893724;29;20024;-72
2023/05/04 11:48:37;;;;;;;9.90;6.22;;;19.60;97.60;;;;;;4912411;29;20036;-72
2023/05/04 11:51:04;;;;;;;12.18;6.50;;;19.70;99.50;;;;;;4915277;29;20024;-72
2023/05/04 11:53:37;;;;;;;12.52;6.35;;;19.90;96.80;;;;;;4911395;29;20028;-80
2023/05/04 11:56:04;;;;;;;10.38;6.30;;;19.80;96.30;;;;;;4907348;29;20024;-72
2023/05/04 11:58:30;;;;;;;12.20;6.68;;;20.00;96.40;;;;;;4908073;29;20040;-75
2023/05/04 12:00:57;;;;;;;11.38;6.93;;;20.00;98.30;;;;;;4910303;29;20060;-72
2023/05/04 12:03:25;;;;;;;14.73;7.38;;;20.00;98.60;;;;;;4914225;29;20515;-72
2023/05/04 12:05:55;;;;;;;13.95;7.53;;;19.80;98.70;;;;;;4906468;29;20037;-79
2023/05/04 12:08:30;;;;;;;12.43;7.15;;;19.80;99.80;;;;;;4912106;29;20560;-74
2023/05/04 12:11:11;;;;;;;13.18;8.15;;;20.10;98.10;;;;;;4910400;29;20036;-81
2023/05/04 12:13:39;;;;;;;11.30;7.13;;;20.10;97.00;;;;;;4912069;29;20095;-72
2023/05/04 12:16:16;;;;;;;11.68;7.03;;;20.10;96.30;;;;;;4914759;29;20059;-75
2023/05/04 12:18:44;;;;;;;14.38;7.80;;;20.20;96.90;;;;;;4906320;29;20024;-71
2023/05/04 12:21:18;;;;;;;10.82;6.13;;;20.40;97.60;;;;;;4915456;29;20028;-73
2023/05/04 12:23:44;;;;;;;10.70;6.10;;;20.40;98.10;;;;;;4914730;29;20044;-72
2023/05/04 12:26:14;;;;;;;11.45;6.80;;;20.50;97.50;;;;;;4909101;29;20070;-71
2023/05/04 12:28:41;;;;;;;12.23;6.65;;;20.60;98.00;;;;;;4911323;29;20044;-76
2023/05/04 12:31:08;;;;;;;10.50;7.03;;;20.60;96.70;;;;;;4918351;29;20032;-72
2023/05/04 12:33:34;;;;;;;12.75;6.80;;;20.60;95.60;;;;;;4914042;29;20032;-72
2023/05/04 12:36:01;;;;;;;11.00;6.53;;;20.70;95.60;;;;;;4916757;29;20032;-70